Time;durP1;ratioP1;P1;durP2;ratioP2;P2;SDS_P1;SDS_P2;PMS_P1;PMS_P2;Temp;Humidity;BMP_temperature;BMP_pressure;BME280_temperature;BME280_humidity;BME280_pressure;Samples;Min_cycle;Max_cycle;Signal;HPM_P1;HPM_P2
2022/08/15 00:01:33;;;;;;;3.40;1.73;;;;;;;;;;4970714;28;20035;-74
2022/08/15 00:03:59;;;;;;;2.90;1.80;;;;;;;;;;4985894;28;20508;-75
2022/08/15 00:06:34;;;;;;;3.40;2.30;;;;;;;;;;4990811;28;20297;-75
2022/08/15 00:09:06;;;;;;;2.63;1.85;;;;;;;;;;4991795;28;20046;-74
2022/08/15 00:11:35;;;;;;;2.67;1.67;;;;;;;;;;4991926;28;20037;-74
2022/08/15 00:14:09;;;;;;;4.18;2.00;;;;;;;;;;4990477;28;20039;-74
2022/08/15 00:16:39;;;;;;;2.28;1.65;;;;;;;;;;4992005;28;20026;-74
2022/08/15 00:19:10;;;;;;;1.38;1.27;;;;;;;;;;4976571;28;20045;-73
2022/08/15 00:21:44;;;;;;;3.67;1.37;;;;;;;;;;4991510;28;20055;-74
2022/08/15 00:24:10;;;;;;;2.47;1.52;;;;;;;;;;4992079;28;20026;-74
2022/08/15 00:26:41;;;;;;;2.88;1.83;;;;;;;;;;4988861;28;20030;-74
2022/08/15 00:29:07;;;;;;;2.28;1.75;;;;;;;;;;4994034;28;20479;-74
2022/08/15 00:31:32;;;;;;;2.20;1.85;;;;;;;;;;4986779;28;20082;-74
2022/08/15 00:33:59;;;;;;;3.33;1.67;;;;;;;;;;4990988;28;20034;-74
2022/08/15 00:36:25;;;;;;;2.55;1.52;;;;;;;;;;4989589;28;20479;-73
2022/08/15 00:38:51;;;;;;;3.40;1.60;;;;;;;;;;4993475;28;20038;-74
2022/08/15 00:44:19;;;;;;;2.42;1.27;;;;;;;;;;4986180;28;20073;-73
2022/08/15 00:46:53;;;;;;;3.72;2.00;;;;;;;;;;4983795;28;20436;-74
2022/08/15 00:49:20;;;;;;;2.70;1.38;;;;;;;;;;4986232;28;20121;-74
2022/08/15 00:51:54;;;;;;;4.13;2.17;;;;;;;;;;4992180;28;20472;-74
2022/08/15 00:54:46;;;;;;;1.90;1.38;;;;;;;;;;4997093;28;20034;-74
2022/08/15 00:57:21;;;;;;;1.73;1.15;;;;;;;;;;4982673;28;20031;-75
2022/08/15 00:59:58;;;;;;;1.83;1.55;;;;;;;;;;4995945;28;20061;-74
2022/08/15 01:02:28;;;;;;;2.08;1.33;;;;;;;;;;4977093;28;20022;-74
2022/08/15 01:04:53;;;;;;;1.98;1.60;;;;;;;;;;4985525;28;20040;-74
2022/08/15 01:07:24;;;;;;;1.95;1.45;;;;;;;;;;4993601;28;20022;-74
2022/08/15 01:09:51;;;;;;;1.83;1.30;;;;;;;;;;4995089;28;20034;-75
2022/08/15 01:12:25;;;;;;;1.95;1.38;;;;;;;;;;4994447;28;20489;-74
2022/08/15 01:14:58;;;;;;;2.63;1.48;;;;;;;;;;4992035;28;20434;-74
2022/08/15 01:17:25;;;;;;;2.50;1.55;;;;;;;;;;4994815;28;20030;-75
2022/08/15 01:20:02;;;;;;;2.05;1.75;;;;;;;;;;4995313;28;20374;-74
2022/08/15 01:22:49;;;;;;;3.03;2.15;;;;;;;;;;4996204;28;20040;-74
2022/08/15 01:25:28;;;;;;;2.83;2.10;;;;;;;;;;4996343;28;20026;-74
2022/08/15 01:28:04;;;;;;;2.17;1.92;;;;;;;;;;4995654;28;20053;-74
2022/08/15 01:30:40;;;;;;;2.70;1.98;;;;;;;;;;4995977;28;20037;-75
2022/08/15 01:33:06;;;;;;;2.33;1.45;;;;;;;;;;4995111;28;20030;-74
2022/08/15 01:35:34;;;;;;;3.53;2.05;;;;;;;;;;4971337;28;20030;-74
2022/08/15 01:38:04;;;;;;;5.45;2.05;;;;;;;;;;4993101;28;20034;-74
2022/08/15 01:40:42;;;;;;;2.88;2.03;;;;;;;;;;4993724;28;20027;-74
2022/08/15 01:43:11;;;;;;;2.63;2.00;;;;;;;;;;4993034;28;20412;-74
2022/08/15 01:45:40;;;;;;;3.38;1.35;;;;;;;;;;4968543;28;20052;-75
2022/08/15 01:48:14;;;;;;;2.10;1.50;;;;;;;;;;4977272;28;20073;-74
2022/08/15 01:50:44;;;;;;;2.63;1.35;;;;;;;;;;4962595;28;20489;-74
2022/08/15 01:53:18;;;;;;;2.33;1.52;;;;;;;;;;4959616;28;20069;-74
2022/08/15 01:56:05;;;;;;;2.67;1.90;;;;;;;;;;4992584;28;20053;-74
2022/08/15 01:58:45;;;;;;;1.73;1.27;;;;;;;;;;4993465;28;20100;-74
2022/08/15 02:01:14;;;;;;;2.15;1.80;;;;;;;;;;4993283;28;20034;-75
2022/08/15 02:03:42;;;;;;;2.15;1.30;;;;;;;;;;4994150;28;20125;-74
2022/08/15 02:06:12;;;;;;;2.95;1.70;;;;;;;;;;4978147;28;20046;-75
2022/08/15 02:08:38;;;;;;;1.95;1.65;;;;;;;;;;4994556;28;20135;-74
2022/08/15 02:11:09;;;;;;;1.42;1.10;;;;;;;;;;4992485;28;20030;-74
2022/08/15 02:13:36;;;;;;;2.92;2.05;;;;;;;;;;4977743;28;20030;-74
2022/08/15 02:16:06;;;;;;;2.33;1.60;;;;;;;;;;4980825;28;20026;-75
2022/08/15 02:18:34;;;;;;;4.43;1.88;;;;;;;;;;4994250;28;20065;-74
2022/08/15 02:20:59;;;;;;;1.70;1.30;;;;;;;;;;4989248;28;20030;-74
2022/08/15 02:23:27;;;;;;;2.85;1.92;;;;;;;;;;4994874;28;20030;-74
2022/08/15 02:25:55;;;;;;;1.55;1.10;;;;;;;;;;4991783;28;20113;-74
2022/08/15 02:28:23;;;;;;;3.22;1.50;;;;;;;;;;4993056;28;20023;-74
2022/08/15 02:30:52;;;;;;;1.33;1.17;;;;;;;;;;4984859;28;20026;-75
2022/08/15 02:33:17;;;;;;;2.33;1.50;;;;;;;;;;4994240;28;20030;-74
2022/08/15 02:35:45;;;;;;;2.13;1.67;;;;;;;;;;4994867;28;20026;-74
2022/08/15 02:38:10;;;;;;;2.45;1.50;;;;;;;;;;4994510;28;20037;-75
2022/08/15 02:40:38;;;;;;;1.30;1.20;;;;;;;;;;4976772;28;20030;-75
2022/08/15 02:43:07;;;;;;;1.90;1.55;;;;;;;;;;4977527;28;20034;-76
2022/08/15 02:45:37;;;;;;;2.45;1.30;;;;;;;;;;4993866;28;20045;-75
2022/08/15 02:48:04;;;;;;;2.88;1.58;;;;;;;;;;4990350;28;20111;-75
2022/08/15 02:50:33;;;;;;;2.47;1.30;;;;;;;;;;4981563;28;20109;-75
2022/08/15 02:53:14;;;;;;;1.90;1.30;;;;;;;;;;5005900;28;20600;-75
2022/08/15 02:55:44;;;;;;;2.65;1.45;;;;;;;;;;4976903;28;20038;-75
2022/08/15 02:58:13;;;;;;;3.50;1.48;;;;;;;;;;4995046;28;20356;-76
2022/08/15 03:00:47;;;;;;;0.90;0.90;;;;;;;;;;4994305;28;20481;-76
2022/08/15 03:03:15;;;;;;;1.67;1.23;;;;;;;;;;4994907;28;20109;-75
2022/08/15 03:05:48;;;;;;;2.83;1.48;;;;;;;;;;4994296;28;20330;-75
2022/08/15 03:08:16;;;;;;;1.90;1.10;;;;;;;;;;4993469;28;20030;-75
2022/08/15 03:10:41;;;;;;;2.53;1.45;;;;;;;;;;4994890;28;20376;-76
2022/08/15 03:13:11;;;;;;;1.30;0.85;;;;;;;;;;4995715;28;20026;-75
2022/08/15 03:15:56;;;;;;;1.77;1.30;;;;;;;;;;4993530;28;20076;-75
2022/08/15 03:18:23;;;;;;;1.77;1.45;;;;;;;;;;4992497;28;20026;-75
2022/08/15 03:20:51;;;;;;;1.88;1.33;;;;;;;;;;4994963;28;20433;-75
2022/08/15 03:23:20;;;;;;;2.42;1.70;;;;;;;;;;4995580;28;20036;-75
2022/08/15 03:25:52;;;;;;;1.40;1.30;;;;;;;;;;4993669;28;20026;-75
2022/08/15 03:28:18;;;;;;;;;;;;;;;;;;4990770;28;20022;-75
2022/08/15 03:30:43;;;;;;;3.53;1.83;;;;;;;;;;4992662;28;19917;-74
2022/08/15 03:33:11;;;;;;;3.17;1.48;;;;;;;;;;4993583;28;20038;-74
2022/08/15 03:35:42;;;;;;;2.20;1.58;;;;;;;;;;4991020;28;20049;-74
2022/08/15 03:38:07;;;;;;;2.40;1.40;;;;;;;;;;4993180;28;20030;-75
2022/08/15 03:40:34;;;;;;;1.92;1.50;;;;;;;;;;4994209;28;20446;-75
2022/08/15 03:43:05;;;;;;;1.70;1.15;;;;;;;;;;4988889;28;20501;-74
2022/08/15 03:45:33;;;;;;;4.00;1.57;;;;;;;;;;4990719;28;20034;-74
2022/08/15 03:48:00;;;;;;;2.15;1.33;;;;;;;;;;4990573;28;20038;-74
2022/08/15 03:50:28;;;;;;;1.30;0.95;;;;;;;;;;4992953;28;20022;-74
2022/08/15 03:52:59;;;;;;;2.72;1.25;;;;;;;;;;4994682;28;20039;-75
2022/08/15 03:55:27;;;;;;;0.93;0.80;;;;;;;;;;4995171;28;20080;-74
2022/08/15 03:57:53;;;;;;;2.50;1.00;;;;;;;;;;4992286;28;20038;-74
2022/08/15 04:00:36;;;;;;;1.48;1.13;;;;;;;;;;4992126;28;20033;-75
2022/08/15 04:03:06;;;;;;;;;;;;;;;;;;4992523;28;20142;-75
2022/08/15 04:05:34;;;;;;;1.42;0.98;;;;;;;;;;4992972;28;20384;-74
2022/08/15 04:08:00;;;;;;;1.63;1.08;;;;;;;;;;4989403;28;20061;-75
2022/08/15 04:10:25;;;;;;;1.65;1.15;;;;;;;;;;4987055;28;20039;-75
2022/08/15 04:12:51;;;;;;;0.77;0.77;;;;;;;;;;4988770;28;20034;-75
2022/08/15 04:15:17;;;;;;;1.42;0.95;;;;;;;;;;4993945;28;20074;-75
2022/08/15 04:17:45;;;;;;;2.55;0.82;;;;;;;;;;4991906;28;20033;-75
2022/08/15 04:20:11;;;;;;;0.93;0.80;;;;;;;;;;4989777;28;20035;-75
2022/08/15 04:22:42;;;;;;;0.57;0.50;;;;;;;;;;4992855;28;20349;-75
2022/08/15 04:25:27;;;;;;;1.70;1.17;;;;;;;;;;4991366;28;20030;-74
2022/08/15 04:27:56;;;;;;;1.38;0.88;;;;;;;;;;4995246;28;20045;-75
2022/08/15 04:30:25;;;;;;;0.90;0.90;;;;;;;;;;4996220;28;20323;-75
2022/08/15 04:32:52;;;;;;;1.35;0.90;;;;;;;;;;4997306;28;20026;-74
2022/08/15 04:35:20;;;;;;;3.80;0.77;;;;;;;;;;4998036;28;20442;-74
2022/08/15 04:37:47;;;;;;;1.02;0.90;;;;;;;;;;4994518;28;20334;-75
2022/08/15 04:40:15;;;;;;;0.80;0.80;;;;;;;;;;4996295;28;20109;-75
2022/08/15 04:42:59;;;;;;;0.95;0.80;;;;;;;;;;4991385;28;20717;-74
2022/08/15 04:45:28;;;;;;;3.80;1.42;;;;;;;;;;4983380;28;20548;-74
2022/08/15 04:47:53;;;;;;;1.13;0.73;;;;;;;;;;4996488;28;20112;-74
2022/08/15 04:50:21;;;;;;;1.10;0.57;;;;;;;;;;4978065;28;20585;-74
2022/08/15 04:52:51;;;;;;;0.52;0.50;;;;;;;;;;4982139;28;20026;-75
2022/08/15 04:55:19;;;;;;;0.63;0.63;;;;;;;;;;4994286;28;20049;-75
2022/08/15 04:57:49;;;;;;;1.02;0.68;;;;;;;;;;4995233;28;20061;-74
2022/08/15 05:00:19;;;;;;;0.90;0.50;;;;;;;;;;4993911;28;20057;-75
2022/08/15 05:03:08;;;;;;;1.17;0.93;;;;;;;;;;4996412;28;20361;-75
2022/08/15 05:05:38;;;;;;;0.75;0.55;;;;;;;;;;4979916;28;20582;-75
2022/08/15 05:08:04;;;;;;;0.45;0.45;;;;;;;;;;4991389;28;20022;-75
2022/08/15 05:10:29;;;;;;;0.88;0.88;;;;;;;;;;4996704;28;20358;-74
2022/08/15 05:12:55;;;;;;;0.90;0.82;;;;;;;;;;4995661;28;20118;-75
2022/08/15 05:15:27;;;;;;;3.28;1.05;;;;;;;;;;4996424;28;20045;-75
2022/08/15 05:17:53;;;;;;;1.27;0.90;;;;;;;;;;4996839;28;20053;-74
2022/08/15 05:20:21;;;;;;;0.57;0.57;;;;;;;;;;4993215;28;20022;-75
2022/08/15 05:22:57;;;;;;;1.33;1.23;;;;;;;;;;4997832;28;20030;-75
2022/08/15 05:25:23;;;;;;;2.90;0.85;;;;;;;;;;4994667;28;20045;-74
2022/08/15 05:27:48;;;;;;;0.70;0.60;;;;;;;;;;4994410;28;20033;-75
2022/08/15 05:30:16;;;;;;;1.35;0.70;;;;;;;;;;4993961;28;20042;-74
2022/08/15 05:32:42;;;;;;;0.90;0.52;;;;;;;;;;4992994;28;20022;-74
2022/08/15 05:35:08;;;;;;;0.88;0.65;;;;;;;;;;4997179;28;20045;-75
2022/08/15 05:37:34;;;;;;;0.75;0.75;;;;;;;;;;4994816;28;20034;-75
2022/08/15 05:39:59;;;;;;;0.85;0.85;;;;;;;;;;4993272;28;20030;-74
2022/08/15 05:42:35;;;;;;;1.77;1.33;;;;;;;;;;4993017;28;20022;-74
2022/08/15 05:45:15;;;;;;;0.80;0.80;;;;;;;;;;4994926;28;20353;-75
2022/08/15 05:47:47;;;;;;;0.77;0.70;;;;;;;;;;4993088;28;20030;-74
2022/08/15 05:50:20;;;;;;;0.50;0.50;;;;;;;;;;4986631;28;20056;-76
2022/08/15 05:53:17;;;;;;;2.45;1.00;;;;;;;;;;4993819;28;20065;-75
2022/08/15 05:55:53;;;;;;;0.85;0.80;;;;;;;;;;4992196;28;20052;-77
2022/08/15 05:58:56;;;;;;;2.38;0.77;;;;;;;;;;4994510;28;20484;-75
2022/08/15 06:01:30;;;;;;;1.13;0.93;;;;;;;;;;4994426;28;20517;-74
2022/08/15 06:04:06;;;;;;;3.40;1.75;;;;;;;;;;4991365;28;20033;-75
2022/08/15 06:06:35;;;;;;;0.93;0.80;;;;;;;;;;4992804;28;20030;-75
2022/08/15 06:09:16;;;;;;;2.38;1.08;;;;;;;;;;4992653;28;20117;-75
2022/08/15 06:11:46;;;;;;;0.50;0.50;;;;;;;;;;4987087;28;20081;-76
2022/08/15 06:14:29;;;;;;;0.95;0.82;;;;;;;;;;4994154;28;20042;-75
2022/08/15 06:17:02;;;;;;;0.50;0.50;;;;;;;;;;4995694;28;20034;-77
2022/08/15 06:19:34;;;;;;;3.30;1.50;;;;;;;;;;4994245;28;20030;-77
2022/08/15 06:22:18;;;;;;;0.20;0.20;;;;;;;;;;4990873;28;20026;-77
2022/08/15 06:24:53;;;;;;;1.42;1.00;;;;;;;;;;4996245;28;20121;-75
2022/08/15 06:27:31;;;;;;;1.33;0.70;;;;;;;;;;4994424;28;20437;-75
2022/08/15 06:30:08;;;;;;;1.33;1.00;;;;;;;;;;4996051;28;20042;-76
2022/08/15 06:32:52;;;;;;;1.27;0.68;;;;;;;;;;4994230;28;20031;-76
2022/08/15 06:35:42;;;;;;;4.10;0.90;;;;;;;;;;4977254;28;20473;-76
2022/08/15 06:38:38;;;;;;;3.28;1.45;;;;;;;;;;4993249;28;20037;-76
2022/08/15 06:41:06;;;;;;;1.85;0.90;;;;;;;;;;4987375;28;20358;-77
2022/08/15 06:43:34;;;;;;;1.17;0.75;;;;;;;;;;4989700;28;20458;-75
2022/08/15 06:46:01;;;;;;;1.55;1.30;;;;;;;;;;4995515;28;20030;-75
2022/08/15 06:48:32;;;;;;;0.32;0.32;;;;;;;;;;4962185;28;20041;-76
2022/08/15 06:51:02;;;;;;;0.68;0.52;;;;;;;;;;4994806;28;20065;-75
2022/08/15 06:53:35;;;;;;;1.23;0.93;;;;;;;;;;4994124;28;20095;-75
2022/08/15 06:56:09;;;;;;;0.80;0.80;;;;;;;;;;4993195;28;20054;-76
2022/08/15 06:58:52;;;;;;;1.45;0.85;;;;;;;;;;4994718;28;20030;-75
2022/08/15 07:01:30;;;;;;;0.73;0.73;;;;;;;;;;4993420;28;20034;-76
2022/08/15 07:04:04;;;;;;;0.40;0.40;;;;;;;;;;4994468;28;20378;-75
2022/08/15 07:06:35;;;;;;;2.30;0.98;;;;;;;;;;4994892;28;20052;-75
2022/08/15 07:09:11;;;;;;;0.77;0.70;;;;;;;;;;4993607;28;20353;-74
2022/08/15 07:11:50;;;;;;;1.45;0.70;;;;;;;;;;4992864;28;20029;-76
2022/08/15 07:14:24;;;;;;;0.35;0.30;;;;;;;;;;4994226;28;20449;-75
2022/08/15 07:17:08;;;;;;;1.17;0.85;;;;;;;;;;4994245;28;20041;-76
2022/08/15 07:19:35;;;;;;;0.35;0.35;;;;;;;;;;4995374;28;20034;-74
2022/08/15 07:22:03;;;;;;;0.80;0.63;;;;;;;;;;4990932;28;20026;-76
2022/08/15 07:24:32;;;;;;;0.40;0.32;;;;;;;;;;4976359;28;20455;-76
2022/08/15 07:27:10;;;;;;;2.05;1.33;;;;;;;;;;4990929;28;20054;-74
2022/08/15 07:29:47;;;;;;;2.30;0.65;;;;;;;;;;4984124;28;20022;-77
2022/08/15 07:32:18;;;;;;;2.10;0.90;;;;;;;;;;4992922;28;20065;-74
2022/08/15 07:34:55;;;;;;;1.85;0.88;;;;;;;;;;4993668;28;20037;-75
2022/08/15 07:37:22;;;;;;;4.30;1.75;;;;;;;;;;4992902;28;20122;-75
2022/08/15 07:40:14;;;;;;;3.17;0.70;;;;;;;;;;4989638;28;20054;-76
2022/08/15 07:42:44;;;;;;;1.47;0.90;;;;;;;;;;4985965;28;20035;-76
2022/08/15 07:45:16;;;;;;;0.63;0.47;;;;;;;;;;4993740;28;20101;-77
2022/08/15 07:47:57;;;;;;;0.88;0.45;;;;;;;;;;4974744;28;20027;-75
2022/08/15 07:50:42;;;;;;;1.05;0.90;;;;;;;;;;4988737;28;20022;-76
2022/08/15 07:53:30;;;;;;;0.28;0.28;;;;;;;;;;4991965;28;20030;-76
2022/08/15 07:56:05;;;;;;;1.15;0.90;;;;;;;;;;4946254;29;20043;-75
2022/08/15 07:58:32;;;;;;;1.55;0.82;;;;;;;;;;4970151;28;20046;-76
2022/08/15 08:01:34;;;;;;;2.38;0.93;;;;;;;;;;4950731;28;20544;-77
2022/08/15 08:04:10;;;;;;;0.77;0.60;;;;;;;;;;4907283;29;20103;-75
2022/08/15 08:06:43;;;;;;;0.90;0.80;;;;;;;;;;4950943;28;20047;-75
2022/08/15 08:09:29;;;;;;;1.35;0.90;;;;;;;;;;4961346;28;20062;-75
2022/08/15 08:12:09;;;;;;;0.82;0.60;;;;;;;;;;4957532;28;20023;-76
2022/08/15 08:14:53;;;;;;;2.03;0.80;;;;;;;;;;4942642;28;20034;-74
2022/08/15 08:17:34;;;;;;;1.27;0.95;;;;;;;;;;4976771;28;20114;-76
2022/08/15 08:20:21;;;;;;;1.13;1.00;;;;;;;;;;4976498;28;20030;-77
2022/08/15 08:22:51;;;;;;;1.27;0.80;;;;;;;;;;4974101;28;20026;-76
2022/08/15 08:25:27;;;;;;;1.00;0.88;;;;;;;;;;4975911;28;20037;-75
2022/08/15 08:28:10;;;;;;;1.10;1.00;;;;;;;;;;4950547;28;20023;-74
2022/08/15 08:30:41;;;;;;;1.70;1.30;;;;;;;;;;4958285;28;20039;-75
2022/08/15 08:33:18;;;;;;;0.70;0.63;;;;;;;;;;4980450;28;20026;-76
2022/08/15 08:35:47;;;;;;;0.95;0.68;;;;;;;;;;5012742;28;20416;-76
2022/08/15 08:38:18;;;;;;;0.50;0.50;;;;;;;;;;4997569;28;20443;-76
2022/08/15 08:44:04;;;;;;;1.50;1.00;;;;;;;;;;4996380;28;20123;-75
2022/08/15 08:46:45;;;;;;;5.47;1.27;;;;;;;;;;4995627;28;20026;-76
2022/08/15 08:49:49;;;;;;;1.58;0.70;;;;;;;;;;4997359;28;20018;-77
2022/08/15 08:52:36;;;;;;;0.88;0.60;;;;;;;;;;4992613;28;20489;-75
2022/08/15 08:55:06;;;;;;;0.77;0.55;;;;;;;;;;4987584;28;20461;-74
2022/08/15 08:57:36;;;;;;;2.92;0.47;;;;;;;;;;4991115;28;20026;-76
2022/08/15 09:00:05;;;;;;;1.08;0.98;;;;;;;;;;4997368;28;20061;-77
2022/08/15 09:02:37;;;;;;;0.50;0.50;;;;;;;;;;4988973;28;20027;-76
2022/08/15 09:05:12;;;;;;;0.73;0.60;;;;;;;;;;4991474;28;20030;-75
2022/08/15 09:07:43;;;;;;;1.10;0.73;;;;;;;;;;5010235;28;20057;-75
2022/08/15 09:10:11;;;;;;;1.67;1.02;;;;;;;;;;4993771;28;20026;-75
2022/08/15 09:15:28;;;;;;;2.70;0.98;;;;;;;;;;4993293;28;20121;-75
2022/08/15 09:18:02;;;;;;;1.15;0.70;;;;;;;;;;4989764;28;20030;-76
2022/08/15 09:20:37;;;;;;;0.80;0.70;;;;;;;;;;4989132;28;20113;-72
2022/08/15 09:23:06;;;;;;;1.63;0.80;;;;;;;;;;4986981;28;20037;-73
2022/08/15 09:25:52;;;;;;;1.42;0.88;;;;;;;;;;4974842;28;20110;-73
2022/08/15 09:31:43;;;;;;;0.40;0.40;;;;;;;;;;4988077;28;20049;-75
2022/08/15 09:34:23;;;;;;;0.77;0.70;;;;;;;;;;4991637;28;20029;-76
2022/08/15 09:40:21;;;;;;;0.98;0.73;;;;;;;;;;4988582;28;20029;-77
2022/08/15 09:43:23;;;;;;;0.55;0.43;;;;;;;;;;4989207;28;20030;-78
2022/08/15 09:46:09;;;;;;;1.23;1.00;;;;;;;;;;4981033;28;20438;-77
2022/08/15 09:48:56;;;;;;;0.73;0.73;;;;;;;;;;4989533;28;20065;-80
2022/08/15 09:51:28;;;;;;;0.57;0.57;;;;;;;;;;4994748;28;20027;-77
2022/08/15 09:54:22;;;;;;;0.95;0.93;;;;;;;;;;4990111;28;20059;-78
2022/08/15 09:56:50;;;;;;;0.95;0.70;;;;;;;;;;4976161;28;20042;-76
2022/08/15 09:59:18;;;;;;;1.13;0.75;;;;;;;;;;4995379;28;20054;-79
2022/08/15 10:01:59;;;;;;;1.27;0.85;;;;;;;;;;4984323;28;20030;-82
2022/08/15 10:04:40;;;;;;;0.70;0.68;;;;;;;;;;4986474;28;20030;-80
2022/08/15 10:07:06;;;;;;;0.90;0.90;;;;;;;;;;4974486;28;20513;-78
2022/08/15 10:09:39;;;;;;;1.83;1.00;;;;;;;;;;4988534;28;20069;-79
2022/08/15 10:12:09;;;;;;;0.73;0.60;;;;;;;;;;4976146;28;20018;-80
2022/08/15 10:18:05;;;;;;;1.92;1.00;;;;;;;;;;4986816;28;20351;-80
2022/08/15 10:20:31;;;;;;;0.63;0.60;;;;;;;;;;4988644;28;20027;-83
2022/08/15 10:23:04;;;;;;;1.13;0.82;;;;;;;;;;4985711;28;20484;-78
2022/08/15 10:25:29;;;;;;;0.60;0.55;;;;;;;;;;4988042;28;20029;-80
2022/08/15 10:28:13;;;;;;;2.25;1.58;;;;;;;;;;4985530;28;20034;-82
2022/08/15 10:31:04;;;;;;;2.60;1.23;;;;;;;;;;5000293;28;20034;-80
2022/08/15 10:33:33;;;;;;;0.65;0.57;;;;;;;;;;4993630;28;20070;-79
2022/08/15 10:36:25;;;;;;;1.13;1.02;;;;;;;;;;4987710;28;20067;-77
2022/08/15 10:38:57;;;;;;;1.65;1.33;;;;;;;;;;4979064;28;20193;-78
2022/08/15 10:41:31;;;;;;;3.97;0.82;;;;;;;;;;5012741;28;20064;-80
2022/08/15 10:44:05;;;;;;;1.20;0.88;;;;;;;;;;5014882;28;20113;-78
2022/08/15 10:46:35;;;;;;;0.93;0.80;;;;;;;;;;5014635;28;20035;-77
2022/08/15 10:49:03;;;;;;;1.98;1.15;;;;;;;;;;5014666;28;20049;-80
2022/08/15 10:51:53;;;;;;;2.13;1.25;;;;;;;;;;5014706;28;20477;-80
2022/08/15 10:54:48;;;;;;;8.93;1.27;;;;;;;;;;4995327;28;20029;-79
2022/08/15 10:57:18;;;;;;;1.00;0.70;;;;;;;;;;4995784;28;20041;-79
2022/08/15 10:59:48;;;;;;;1.02;0.60;;;;;;;;;;4995090;28;20026;-79
2022/08/15 11:02:18;;;;;;;0.95;0.90;;;;;;;;;;4995088;28;20303;-79
2022/08/15 11:04:45;;;;;;;1.67;0.80;;;;;;;;;;4978488;28;20430;-81
2022/08/15 11:07:33;;;;;;;0.65;0.57;;;;;;;;;;4978607;28;20038;-79
2022/08/15 11:10:06;;;;;;;1.00;0.90;;;;;;;;;;4981168;28;20480;-79
2022/08/15 11:12:33;;;;;;;0.70;0.70;;;;;;;;;;4994679;28;20457;-79
2022/08/15 11:15:04;;;;;;;1.50;0.55;;;;;;;;;;4977424;28;20354;-79
2022/08/15 11:17:35;;;;;;;1.67;0.93;;;;;;;;;;4976291;28;20053;-78
2022/08/15 11:20:16;;;;;;;2.80;0.77;;;;;;;;;;4977706;28;20026;-80
2022/08/15 11:22:58;;;;;;;1.92;1.13;;;;;;;;;;4977170;28;20034;-79
2022/08/15 11:25:39;;;;;;;2.22;1.48;;;;;;;;;;4975630;28;20046;-81
2022/08/15 11:28:18;;;;;;;1.70;1.27;;;;;;;;;;4993655;28;20096;-79
2022/08/15 11:30:48;;;;;;;1.17;1.02;;;;;;;;;;4976683;28;20349;-82
2022/08/15 11:33:40;;;;;;;1.52;1.42;;;;;;;;;;4989628;28;20042;-80
2022/08/15 11:36:10;;;;;;;3.28;1.48;;;;;;;;;;4960116;28;20030;-79
2022/08/15 11:38:42;;;;;;;7.28;1.33;;;;;;;;;;4992665;28;20412;-80
2022/08/15 11:41:08;;;;;;;1.52;1.05;;;;;;;;;;4962521;28;20026;-81
2022/08/15 11:43:34;;;;;;;1.77;1.20;;;;;;;;;;4961971;28;20045;-80
2022/08/15 11:46:00;;;;;;;0.75;0.65;;;;;;;;;;4975953;28;20042;-81
2022/08/15 11:48:31;;;;;;;1.88;0.98;;;;;;;;;;4978091;28;20409;-78
2022/08/15 11:51:14;;;;;;;0.82;0.77;;;;;;;;;;4984605;28;20553;-80
2022/08/15 11:54:15;;;;;;;2.05;1.50;;;;;;;;;;4994986;28;20030;-81
2022/08/15 11:57:06;;;;;;;0.75;0.60;;;;;;;;;;4987365;28;20042;-80
2022/08/15 11:59:35;;;;;;;1.77;1.02;;;;;;;;;;4993854;28;20361;-81
2022/08/15 12:02:22;;;;;;;0.98;0.70;;;;;;;;;;4976262;28;20639;-80
2022/08/15 12:04:49;;;;;;;0.52;0.52;;;;;;;;;;4992478;28;20038;-79
2022/08/15 12:07:34;;;;;;;2.92;1.25;;;;;;;;;;4994913;28;20438;-81
2022/08/15 12:10:06;;;;;;;2.55;1.05;;;;;;;;;;4974970;28;20139;-79
2022/08/15 12:12:38;;;;;;;2.70;1.77;;;;;;;;;;5004231;28;20460;-83
2022/08/15 12:15:09;;;;;;;0.73;0.73;;;;;;;;;;5009949;28;20034;-79
2022/08/15 12:17:35;;;;;;;0.63;0.57;;;;;;;;;;4993685;28;20136;-78
2022/08/15 12:20:04;;;;;;;1.13;0.85;;;;;;;;;;4995270;28;20078;-78
2022/08/15 12:22:37;;;;;;;1.00;0.98;;;;;;;;;;4994742;28;20105;-79
2022/08/15 12:25:06;;;;;;;1.50;0.90;;;;;;;;;;5007078;28;20318;-80
2022/08/15 12:27:33;;;;;;;2.08;1.38;;;;;;;;;;5012521;28;20046;-79
2022/08/15 12:29:59;;;;;;;1.05;0.85;;;;;;;;;;4978317;28;20469;-79
2022/08/15 12:32:25;;;;;;;0.45;0.45;;;;;;;;;;4976403;28;20038;-82
2022/08/15 12:34:54;;;;;;;0.88;0.80;;;;;;;;;;4993040;28;20027;-79
2022/08/15 12:37:23;;;;;;;1.45;0.98;;;;;;;;;;4976684;28;20035;-81
2022/08/15 12:39:52;;;;;;;1.63;0.80;;;;;;;;;;4960618;28;20450;-80
2022/08/15 12:42:21;;;;;;;1.40;1.10;;;;;;;;;;4960432;28;20092;-79
2022/08/15 12:44:50;;;;;;;2.35;1.02;;;;;;;;;;4960482;28;20030;-79
2022/08/15 12:47:17;;;;;;;1.08;1.05;;;;;;;;;;4960870;28;20109;-79
2022/08/15 12:49:44;;;;;;;0.70;0.65;;;;;;;;;;4996410;28;20319;-79
2022/08/15 12:52:09;;;;;;;3.90;1.83;;;;;;;;;;4980218;28;20038;-80
2022/08/15 12:54:35;;;;;;;4.90;1.48;;;;;;;;;;4964009;28;20094;-77
2022/08/15 12:57:00;;;;;;;1.35;0.80;;;;;;;;;;4980174;28;20070;-80
2022/08/15 12:59:26;;;;;;;1.13;0.90;;;;;;;;;;4997299;28;20124;-80
2022/08/15 13:02:00;;;;;;;0.90;0.90;;;;;;;;;;5011766;28;20453;-80
2022/08/15 13:04:26;;;;;;;0.85;0.70;;;;;;;;;;4999780;28;20040;-78
2022/08/15 13:06:55;;;;;;;1.15;1.05;;;;;;;;;;5017083;28;20025;-79
2022/08/15 13:09:31;;;;;;;2.13;1.58;;;;;;;;;;5000428;28;20046;-80
2022/08/15 13:12:00;;;;;;;1.27;0.90;;;;;;;;;;5016542;28;20022;-78
2022/08/15 13:14:26;;;;;;;0.73;0.70;;;;;;;;;;5006001;28;20033;-80
2022/08/15 13:16:54;;;;;;;1.50;1.27;;;;;;;;;;4996098;28;20031;-81
2022/08/15 13:19:25;;;;;;;1.88;0.90;;;;;;;;;;4996722;28;20027;-79
2022/08/15 13:24:48;;;;;;;1.25;1.02;;;;;;;;;;4991751;28;20100;-82
2022/08/15 13:27:16;;;;;;;1.65;1.13;;;;;;;;;;4994043;28;20173;-81
2022/08/15 13:29:42;;;;;;;0.93;0.88;;;;;;;;;;4991478;28;20030;-80
2022/08/15 13:32:08;;;;;;;2.28;0.95;;;;;;;;;;4994370;28;20060;-84
2022/08/15 13:34:36;;;;;;;1.65;1.17;;;;;;;;;;4995281;28;20027;-84
2022/08/15 13:37:09;;;;;;;1.10;1.00;;;;;;;;;;4997087;28;20034;-84
2022/08/15 13:39:36;;;;;;;2.92;1.15;;;;;;;;;;4980138;28;20030;-87
2022/08/15 13:42:02;;;;;;;1.77;1.25;;;;;;;;;;4983827;28;20023;-82
2022/08/15 13:44:28;;;;;;;2.85;1.42;;;;;;;;;;4999654;28;20109;-83
2022/08/15 13:46:56;;;;;;;1.30;0.93;;;;;;;;;;5002808;28;20412;-86
2022/08/15 13:49:22;;;;;;;0.70;0.70;;;;;;;;;;4987939;28;20010;-84
2022/08/15 13:51:53;;;;;;;0.63;0.60;;;;;;;;;;4988499;28;20026;-83
2022/08/15 13:54:22;;;;;;;1.05;0.95;;;;;;;;;;5001974;28;20377;-88
2022/08/15 13:56:49;;;;;;;0.98;0.80;;;;;;;;;;4985540;28;20057;-87
2022/08/15 13:59:14;;;;;;;1.20;0.90;;;;;;;;;;5001535;28;20026;-88
2022/08/15 14:01:48;;;;;;;1.58;1.20;;;;;;;;;;4986770;28;20061;-83
2022/08/15 14:04:20;;;;;;;1.83;1.40;;;;;;;;;;4987192;28;20034;-85
2022/08/15 14:06:46;;;;;;;1.23;0.85;;;;;;;;;;4982128;28;20026;-89
2022/08/15 14:09:15;;;;;;;3.13;1.65;;;;;;;;;;4981417;28;20449;-88
2022/08/15 14:11:43;;;;;;;1.77;1.05;;;;;;;;;;4993125;28;20105;-86
2022/08/15 14:14:17;;;;;;;1.98;1.20;;;;;;;;;;4997298;28;20101;-85
2022/08/15 14:16:46;;;;;;;0.93;0.70;;;;;;;;;;4975083;28;20030;-83
2022/08/15 14:19:14;;;;;;;1.13;1.02;;;;;;;;;;4998843;28;20122;-89
2022/08/15 14:21:40;;;;;;;1.13;0.95;;;;;;;;;;4982199;28;20014;-85
2022/08/15 14:24:05;;;;;;;1.42;1.33;;;;;;;;;;4982690;28;20022;-91
2022/08/15 14:26:37;;;;;;;1.08;0.98;;;;;;;;;;4998078;28;20032;-87
2022/08/15 14:29:16;;;;;;;1.13;0.88;;;;;;;;;;4994474;28;20129;-85
2022/08/15 14:31:46;;;;;;;1.50;1.23;;;;;;;;;;4996718;28;20041;-88
2022/08/15 14:34:15;;;;;;;1.10;0.82;;;;;;;;;;4995379;28;20054;-86
2022/08/15 14:36:43;;;;;;;1.05;0.85;;;;;;;;;;4997640;28;20109;-91
2022/08/15 14:39:09;;;;;;;1.55;1.45;;;;;;;;;;4994806;28;20022;-90
2022/08/15 14:41:40;;;;;;;1.63;0.80;;;;;;;;;;4980032;28;20404;-92
2022/08/15 14:44:06;;;;;;;0.77;0.73;;;;;;;;;;4976832;28;20074;-89
2022/08/15 14:46:31;;;;;;;0.93;0.60;;;;;;;;;;4981300;28;20049;-90
2022/08/15 14:48:57;;;;;;;0.75;0.73;;;;;;;;;;4986067;28;20018;-91
2022/08/15 14:51:31;;;;;;;3.10;1.35;;;;;;;;;;4972629;28;20026;-89
2022/08/15 14:53:58;;;;;;;2.25;0.98;;;;;;;;;;4962856;28;20026;-87
2022/08/15 14:56:24;;;;;;;0.93;0.52;;;;;;;;;;4977801;28;20037;-89
2022/08/15 14:58:49;;;;;;;1.58;1.10;;;;;;;;;;4981500;28;20106;-92
2022/08/15 15:01:20;;;;;;;2.35;1.30;;;;;;;;;;4998519;28;20501;-85
2022/08/15 15:03:51;;;;;;;1.92;1.17;;;;;;;;;;4977803;28;20038;-85
2022/08/15 15:06:20;;;;;;;1.17;1.02;;;;;;;;;;4996311;28;20088;-91
2022/08/15 15:09:13;;;;;;;0.95;0.93;;;;;;;;;;4994538;28;20026;-88
2022/08/15 15:11:44;;;;;;;0.93;0.80;;;;;;;;;;4982211;28;20038;-87
2022/08/15 15:14:44;;;;;;;;;;;;;;;;;;4993707;28;20479;-85
2022/08/15 15:17:12;;;;;;;3.17;1.80;;;;;;;;;;4992499;28;19913;-89
2022/08/15 15:19:38;;;;;;;1.52;1.08;;;;;;;;;;4996779;28;20034;-89
2022/08/15 15:22:04;;;;;;;3.20;1.23;;;;;;;;;;4996966;28;20452;-85
2022/08/15 15:24:35;;;;;;;0.93;0.70;;;;;;;;;;4980058;28;20042;-87
2022/08/15 15:27:06;;;;;;;1.55;1.35;;;;;;;;;;4996836;28;20038;-87
2022/08/15 15:29:34;;;;;;;1.30;1.20;;;;;;;;;;4995448;28;20022;-85
2022/08/15 15:31:59;;;;;;;1.02;0.70;;;;;;;;;;4981846;28;20110;-88
2022/08/15 15:34:30;;;;;;;1.20;1.10;;;;;;;;;;4996020;28;20200;-89
2022/08/15 15:36:56;;;;;;;1.38;1.00;;;;;;;;;;4970360;28;20046;-87